Time;durP1;ratioP1;P1;durP2;ratioP2;P2;SDS_P1;SDS_P2;PMS_P1;PMS_P2;Temp;Humidity;BMP_temperature;BMP_pressure;BME280_temperature;BME280_humidity;BME280_pressure;Samples;Min_cycle;Max_cycle;Signal;HPM_P1;HPM_P2
2022/01/02 00:00:19;;;;;;;1.15;0.42;;;;;;;2.64;76.12;100512.47;1675934;84;21565;-68
2022/01/02 00:02:51;;;;;;;0.45;0.35;;;;;;;2.56;75.48;100534.56;1675899;85;21065;-68
2022/01/02 00:05:20;;;;;;;0.53;0.35;;;;;;;2.53;74.96;100546.03;1676142;85;26639;-68
2022/01/02 00:08:03;;;;;;;0.50;0.40;;;;;;;2.49;74.10;100560.64;1702844;84;20980;-68
2022/01/02 00:10:36;;;;;;;1.02;0.70;;;;;;;2.51;74.02;100538.34;1736968;82;21020;-68
2022/01/02 00:13:04;;;;;;;1.35;0.70;;;;;;;2.53;73.77;100538.13;1737303;82;21024;-68
2022/01/02 00:15:32;;;;;;;0.98;0.60;;;;;;;2.53;73.68;100571.92;1737533;82;20980;-68
2022/01/02 00:18:12;;;;;;;1.77;0.70;;;;;;;2.54;73.55;100568.26;1737353;82;21144;-68
2022/01/02 00:20:48;;;;;;;1.22;0.60;;;;;;;2.57;73.83;100565.22;1737105;82;21039;-68
2022/01/02 00:23:28;;;;;;;0.90;0.60;;;;;;;2.63;74.22;100587.81;1737495;82;21138;-68
2022/01/02 00:25:45;;;;;;;0.65;0.60;;;;;;;2.64;73.99;100592.90;1735026;82;21028;-68
2022/01/02 00:28:12;;;;;;;2.10;1.02;;;;;;;2.66;74.20;100607.99;1708487;82;21185;-68
2022/01/02 00:30:41;;;;;;;1.42;0.78;;;;;;;2.65;73.60;100602.42;1737115;82;21111;-67
2022/01/02 00:33:08;;;;;;;1.27;0.93;;;;;;;2.67;73.70;100613.59;1737236;82;20925;-68
2022/01/02 00:35:36;;;;;;;1.00;0.70;;;;;;;2.69;73.18;100621.28;1735146;81;20960;-69
2022/01/02 00:38:07;;;;;;;1.75;0.93;;;;;;;2.71;73.44;100620.59;1706417;84;21003;-67
2022/01/02 00:40:40;;;;;;;2.02;0.88;;;;;;;2.72;72.59;100612.97;1706460;84;21043;-67
2022/01/02 00:43:19;;;;;;;0.68;0.50;;;;;;;2.68;71.83;100640.77;1706560;84;21621;-67
2022/01/02 00:45:47;;;;;;;1.00;0.60;;;;;;;2.67;71.97;100628.61;1706132;84;21001;-68
2022/01/02 00:48:29;;;;;;;0.93;0.42;;;;;;;2.67;71.14;100628.61;1706667;84;21447;-68
2022/01/02 00:51:01;;;;;;;0.72;0.45;;;;;;;2.62;68.23;100622.60;1707095;84;21060;-68
2022/01/02 00:53:36;;;;;;;0.70;0.47;;;;;;;2.59;67.28;100630.91;1707820;84;21523;-68
2022/01/02 00:56:03;;;;;;;1.17;0.55;;;;;;;2.59;66.81;100642.27;1708094;83;21881;-68
2022/01/02 00:58:39;;;;;;;0.90;0.50;;;;;;;2.57;65.47;100625.05;1707681;83;20999;-68
2022/01/02 01:01:09;;;;;;;0.50;0.50;;;;;;;2.56;64.73;100630.00;1705491;84;21518;-67
2022/01/02 01:03:40;;;;;;;0.85;0.53;;;;;;;2.60;65.81;100629.92;1707832;84;21094;-67
2022/01/02 01:06:09;;;;;;;1.15;0.60;;;;;;;2.59;66.03;100633.55;1707830;82;20999;-67
2022/01/02 01:08:38;;;;;;;1.82;0.50;;;;;;;2.63;66.23;100641.87;1704225;84;21693;-67
2022/01/02 01:11:11;;;;;;;0.37;0.37;;;;;;;2.62;66.68;100644.21;1707653;84;21489;-67
2022/01/02 01:13:38;;;;;;;0.82;0.53;;;;;;;2.62;66.03;100619.97;1707831;84;22299;-67
2022/01/02 01:16:04;;;;;;;0.90;0.50;;;;;;;2.61;65.57;100676.37;1707898;83;21550;-67
2022/01/02 01:18:32;;;;;;;1.10;0.50;;;;;;;2.61;65.18;100636.00;1679800;84;21621;-67
2022/01/02 01:20:59;;;;;;;0.72;0.50;;;;;;;2.60;64.86;100637.84;1707818;84;21111;-67
2022/01/02 01:23:26;;;;;;;0.50;0.50;;;;;;;2.62;64.80;100636.30;1707706;84;21028;-67
2022/01/02 01:25:53;;;;;;;0.50;0.33;;;;;;;2.61;65.04;100636.81;1707763;84;21561;-67
2022/01/02 01:28:20;;;;;;;0.45;0.40;;;;;;;2.61;65.65;100637.33;1707841;83;20973;-67
2022/01/02 01:30:48;;;;;;;0.75;0.40;;;;;;;2.60;65.34;100662.89;1708106;84;21055;-67
2022/01/02 01:33:15;;;;;;;0.85;0.60;;;;;;;2.59;65.58;100643.59;1707895;84;21146;-68
2022/01/02 01:35:42;;;;;;;1.92;0.70;;;;;;;2.57;64.87;100672.52;1707748;84;21047;-67
2022/01/02 01:38:10;;;;;;;1.02;0.62;;;;;;;2.56;64.54;100653.22;1707875;84;21004;-67
2022/01/02 01:40:51;;;;;;;0.95;0.55;;;;;;;2.58;64.24;100678.89;1707656;84;20996;-67
2022/01/02 01:43:23;;;;;;;1.72;0.85;;;;;;;2.61;64.67;100692.70;1705352;84;21399;-67
2022/01/02 01:45:47;;;;;;;0.93;0.60;;;;;;;2.62;64.57;100666.63;1707584;83;21185;-67
2022/01/02 01:48:14;;;;;;;0.82;0.50;;;;;;;2.62;63.64;100668.75;1707961;84;21019;-67
2022/01/02 01:50:42;;;;;;;0.70;0.50;;;;;;;2.64;64.27;100661.97;1707967;84;21554;-67
2022/01/02 01:53:11;;;;;;;1.00;0.60;;;;;;;2.64;64.28;100670.69;1707511;84;21082;-67
2022/01/02 01:55:39;;;;;;;0.68;0.50;;;;;;;2.63;63.75;100669.56;1707707;84;21095;-67
2022/01/02 01:58:07;;;;;;;1.55;0.70;;;;;;;2.65;64.19;100674.14;1707882;84;21091;-68
2022/01/02 02:00:35;;;;;;;1.65;0.50;;;;;;;2.64;63.43;100675.97;1708060;84;21416;-67
2022/01/02 02:03:03;;;;;;;1.57;0.70;;;;;;;2.61;63.33;100680.32;1707930;84;21016;-66
2022/01/02 02:05:32;;;;;;;0.60;0.50;;;;;;;2.60;63.14;100682.66;1707818;82;21035;-67
2022/01/02 02:07:59;;;;;;;1.30;0.53;;;;;;;2.63;63.62;100690.66;1707963;84;21454;-67
2022/01/02 02:10:39;;;;;;;1.20;0.70;;;;;;;2.63;63.69;100699.88;1708158;84;21941;-67
2022/01/02 02:13:05;;;;;;;1.52;0.75;;;;;;;2.62;63.78;100709.62;1707916;84;21004;-67
2022/01/02 02:15:34;;;;;;;1.92;0.80;;;;;;;2.58;63.77;100722.40;1708178;84;21557;-67
2022/01/02 02:18:00;;;;;;;1.35;0.78;;;;;;;2.56;63.81;100707.27;1707881;84;21016;-66
2022/01/02 02:20:35;;;;;;;1.67;0.70;;;;;;;2.52;64.03;100708.70;1708189;84;21550;-68
2022/01/02 02:23:04;;;;;;;0.70;0.53;;;;;;;2.47;63.96;100727.44;1708099;84;21119;-67
2022/01/02 02:25:35;;;;;;;0.72;0.50;;;;;;;2.44;64.04;100725.23;1679838;84;20952;-67
2022/01/02 02:28:07;;;;;;;0.98;0.60;;;;;;;2.43;63.98;100723.58;1708016;83;21110;-67
2022/01/02 02:30:36;;;;;;;0.93;0.60;;;;;;;2.40;64.15;100736.64;1708551;84;20968;-67
2022/01/02 02:33:05;;;;;;;1.15;0.70;;;;;;;2.39;64.53;100744.77;1708026;84;21763;-67
2022/01/02 02:35:34;;;;;;;1.02;0.60;;;;;;;2.35;64.25;100749.63;1708205;84;21782;-68
2022/01/02 02:38:01;;;;;;;0.85;0.55;;;;;;;2.36;64.12;100744.65;1707896;84;21000;-67
2022/01/02 02:40:29;;;;;;;0.85;0.65;;;;;;;2.33;64.39;100731.35;1708240;84;21530;-67
2022/01/02 02:43:04;;;;;;;1.12;0.65;;;;;;;2.32;64.40;100742.11;1708021;84;20988;-67
2022/01/02 02:49:00;;;;;;;1.60;0.70;;;;;;;2.29;63.94;100746.45;1708113;84;21216;-67
2022/01/02 02:51:05;;;;;;;1.22;0.50;;;;;;;2.26;64.07;100741.58;1703660;84;21055;-67
2022/01/02 02:53:35;;;;;;;0.82;0.60;;;;;;;2.22;63.72;100749.58;1708169;84;21019;-67
2022/01/02 02:56:15;;;;;;;0.82;0.60;;;;;;;2.20;63.59;100768.20;1707852;84;21046;-68
2022/01/02 03:01:03;;;;;;;0.68;0.53;;;;;;;2.14;63.57;100759.80;1707855;83;21126;-67
2022/01/02 03:03:31;;;;;;;1.92;0.60;;;;;;;2.15;63.67;100765.87;1707599;82;20992;-68
2022/01/02 03:05:58;;;;;;;0.57;0.57;;;;;;;2.15;64.32;100772.45;1707797;84;21016;-68
2022/01/02 03:08:27;;;;;;;1.12;0.60;;;;;;;2.10;64.12;100771.20;1707599;84;21506;-68
2022/01/02 03:10:54;;;;;;;0.62;0.50;;;;;;;2.09;64.23;100774.85;1707145;84;21056;-69
2022/01/02 03:13:22;;;;;;;1.35;0.70;;;;;;;2.09;64.31;100770.09;1707876;84;21543;-67
2022/01/02 03:15:49;;;;;;;0.95;0.60;;;;;;;2.03;64.75;100780.91;1707825;84;21067;-67
2022/01/02 03:18:17;;;;;;;1.50;0.62;;;;;;;1.98;64.49;100787.27;1707183;83;21004;-67
2022/01/02 03:20:43;;;;;;;1.42;0.70;;;;;;;1.94;64.53;100792.63;1707846;84;21518;-67
2022/01/02 03:23:11;;;;;;;1.25;0.70;;;;;;;1.88;64.55;100797.35;1708071;83;21008;-68
2022/01/02 03:25:38;;;;;;;0.70;0.60;;;;;;;1.81;64.43;100798.63;1707765;84;21174;-67
2022/01/02 03:28:04;;;;;;;1.07;0.70;;;;;;;1.77;64.29;100810.53;1707874;84;21083;-67
2022/01/02 03:30:32;;;;;;;1.25;0.80;;;;;;;1.76;64.29;100804.16;1707808;83;20952;-67
2022/01/02 03:32:58;;;;;;;1.10;0.72;;;;;;;1.72;64.42;100804.23;1707776;84;21000;-67
2022/01/02 03:35:25;;;;;;;1.52;0.70;;;;;;;1.64;64.51;100808.62;1706708;83;21004;-68
2022/01/02 03:37:53;;;;;;;1.40;0.70;;;;;;;1.58;64.57;100806.78;1706610;84;21145;-67
2022/01/02 03:40:20;;;;;;;1.42;0.85;;;;;;;1.54;64.47;100817.36;1707864;84;20988;-67
2022/01/02 03:42:48;;;;;;;1.07;0.80;;;;;;;1.48;64.52;100801.52;1707563;83;21418;-67
2022/01/02 03:45:16;;;;;;;1.10;0.70;;;;;;;1.37;64.34;100810.75;1707400;83;21117;-67
2022/01/02 03:47:46;;;;;;;1.32;0.80;;;;;;;1.30;64.28;100823.85;1707894;83;21048;-67
2022/01/02 03:50:14;;;;;;;1.32;0.88;;;;;;;1.22;64.35;100831.05;1708061;84;21218;-68
2022/01/02 03:52:42;;;;;;;1.52;1.00;;;;;;;1.15;64.39;100830.98;1707878;84;20997;-68
2022/01/02 03:55:10;;;;;;;1.37;0.90;;;;;;;1.06;64.43;100832.95;1717079;82;21544;-68
2022/01/02 03:57:37;;;;;;;1.37;0.80;;;;;;;0.99;64.55;100836.50;1740248;82;21050;-68
2022/01/02 04:00:10;;;;;;;1.52;0.95;;;;;;;0.92;64.50;100854.84;1740112;82;21510;-67
2022/01/02 04:02:38;;;;;;;1.40;1.00;;;;;;;0.87;64.47;100857.23;1690541;84;21143;-67
2022/01/02 04:05:08;;;;;;;1.77;1.00;;;;;;;0.79;64.34;100854.70;1667958;84;21035;-68
2022/01/02 04:07:35;;;;;;;1.92;1.00;;;;;;;0.72;64.20;100870.39;1668747;86;21126;-67
2022/01/02 04:10:06;;;;;;;3.15;1.15;;;;;;;0.65;63.99;100872.13;1668376;86;21103;-68
2022/01/02 04:12:33;;;;;;;1.82;0.88;;;;;;;0.60;63.84;100883.21;1668535;85;21023;-68
2022/01/02 04:15:03;;;;;;;1.82;1.10;;;;;;;0.53;63.65;100886.27;1668536;84;21598;-68
2022/01/02 04:17:31;;;;;;;1.50;0.80;;;;;;;0.48;63.39;100893.86;1707288;83;21427;-66
2022/01/02 04:19:59;;;;;;;1.57;0.88;;;;;;;0.41;63.25;100904.79;1707741;84;21015;-67
2022/01/02 04:22:26;;;;;;;1.67;1.00;;;;;;;0.36;62.89;100932.94;1707856;83;21052;-67
2022/01/02 04:24:53;;;;;;;1.55;0.82;;;;;;;0.36;62.73;100911.08;1707732;84;21055;-67
2022/01/02 04:27:21;;;;;;;1.65;0.80;;;;;;;0.33;62.52;100927.20;1708323;83;21480;-67
2022/01/02 04:29:48;;;;;;;2.05;1.10;;;;;;;0.31;62.39;100914.25;1707585;84;21533;-67
2022/01/02 04:32:15;;;;;;;2.60;1.25;;;;;;;0.27;62.41;100922.69;1708256;84;21495;-67
2022/01/02 04:34:44;;;;;;;2.27;1.10;;;;;;;0.24;62.33;100917.29;1707832;84;21522;-67
2022/01/02 04:37:12;;;;;;;2.17;1.17;;;;;;;0.21;62.31;100922.91;1708313;84;21435;-68
2022/01/02 04:39:40;;;;;;;2.12;1.27;;;;;;;0.19;62.55;100921.75;1707828;84;21952;-68
2022/01/02 04:42:07;;;;;;;1.95;1.05;;;;;;;0.15;62.43;100940.19;1708021;83;20995;-67
2022/01/02 04:44:34;;;;;;;2.20;1.17;;;;;;;0.10;62.58;100945.17;1707803;84;21053;-66
2022/01/02 04:47:01;;;;;;;2.90;1.40;;;;;;;0.07;62.60;100945.53;1708117;84;21031;-66
2022/01/02 04:49:29;;;;;;;2.30;1.20;;;;;;;0.05;62.51;100944.08;1707777;84;20996;-67
2022/01/02 04:51:57;;;;;;;1.85;1.22;;;;;;;-0.02;62.36;100938.22;1708515;84;21152;-68
2022/01/02 04:54:25;;;;;;;1.77;1.05;;;;;;;-0.03;62.25;100947.59;1707782;84;21008;-68
2022/01/02 04:56:52;;;;;;;2.67;1.47;;;;;;;-0.08;62.20;100946.80;1679896;84;21067;-68
2022/01/02 04:59:20;;;;;;;4.28;1.90;;;;;;;-0.09;62.11;100946.48;1707791;84;20968;-67
2022/01/02 05:01:47;;;;;;;3.35;1.62;;;;;;;-0.11;62.28;100964.72;1707566;84;21095;-68
2022/01/02 05:04:15;;;;;;;4.28;2.30;;;;;;;-0.14;62.11;100966.38;1707718;82;21949;-68
2022/01/02 05:06:41;;;;;;;3.22;1.80;;;;;;;-0.19;62.27;100973.48;1707518;84;20979;-68
2022/01/02 05:09:08;;;;;;;3.95;1.42;;;;;;;-0.21;62.36;100975.95;1707653;84;20947;-68
2022/01/02 05:11:37;;;;;;;3.60;1.52;;;;;;;-0.25;62.52;100981.56;1707857;84;21014;-68
2022/01/02 05:14:04;;;;;;;2.75;1.60;;;;;;;-0.28;62.59;100988.97;1707262;84;21098;-68
2022/01/02 05:16:30;;;;;;;2.80;1.45;;;;;;;-0.28;62.69;100983.72;1707728;84;21714;-68
2022/01/02 05:18:59;;;;;;;3.27;1.85;;;;;;;-0.30;62.86;100986.50;1707473;84;21095;-66
2022/01/02 05:21:26;;;;;;;2.52;1.42;;;;;;;-0.32;62.91;100974.06;1707840;84;21526;-67
2022/01/02 05:23:54;;;;;;;2.47;1.35;;;;;;;-0.35;63.16;100978.35;1707812;83;21028;-66
2022/01/02 05:26:20;;;;;;;2.12;1.10;;;;;;;-0.38;63.21;100983.95;1707817;83;20960;-67
2022/01/02 05:28:47;;;;;;;2.85;1.32;;;;;;;-0.39;63.42;100986.77;1707798;84;21481;-67
2022/01/02 05:31:14;;;;;;;2.30;1.25;;;;;;;-0.41;63.50;100996.61;1674831;84;21036;-67
2022/01/02 05:33:41;;;;;;;3.40;1.40;;;;;;;-0.43;63.55;100992.83;1679385;85;21012;-67
2022/01/02 05:36:08;;;;;;;2.50;1.40;;;;;;;-0.47;63.88;100991.05;1679514;85;21463;-67
2022/01/02 05:38:35;;;;;;;2.65;1.32;;;;;;;-0.48;63.86;100996.48;1679486;85;21486;-67
2022/01/02 05:41:03;;;;;;;2.40;1.22;;;;;;;-0.50;64.01;101004.52;1679638;85;21955;-68
2022/01/02 05:43:30;;;;;;;1.92;1.15;;;;;;;-0.51;64.20;101003.39;1679677;85;21055;-68
2022/01/02 05:46:03;;;;;;;1.92;1.07;;;;;;;-0.53;64.60;101005.36;1679513;85;21060;-67
2022/01/02 05:48:25;;;;;;;1.87;1.05;;;;;;;-0.54;64.62;101001.11;1679078;85;21189;-68
2022/01/02 05:50:54;;;;;;;1.82;0.98;;;;;;;-0.53;64.71;101007.98;1679431;85;21623;-68
2022/01/02 05:53:21;;;;;;;1.85;1.10;;;;;;;-0.56;64.77;101004.39;1679871;85;21057;-67
2022/01/02 05:55:47;;;;;;;2.42;1.40;;;;;;;-0.58;64.85;101007.20;1679467;85;21462;-68
2022/01/02 05:58:14;;;;;;;3.37;1.70;;;;;;;-0.60;64.82;101009.66;1679847;85;21537;-67
2022/01/02 06:00:41;;;;;;;3.02;1.67;;;;;;;-0.59;65.00;101010.83;1679334;85;21099;-68
2022/01/02 06:03:08;;;;;;;3.85;2.10;;;;;;;-0.61;65.10;101026.41;1707895;84;21016;-68
2022/01/02 06:05:37;;;;;;;4.92;2.45;;;;;;;-0.65;65.13;101022.00;1692292;83;21060;-68
2022/01/02 06:08:05;;;;;;;3.50;2.10;;;;;;;-0.66;65.18;101019.53;1667409;86;21036;-68
2022/01/02 06:10:33;;;;;;;3.80;1.90;;;;;;;-0.68;65.24;101032.84;1696616;84;21696;-68
2022/01/02 06:13:00;;;;;;;4.22;2.45;;;;;;;-0.69;65.26;101036.92;1698810;84;21151;-68
2022/01/02 06:15:26;;;;;;;3.45;1.87;;;;;;;-0.69;65.20;101031.67;1696639;84;20956;-68
2022/01/02 06:17:55;;;;;;;3.87;2.00;;;;;;;-0.71;65.19;101037.92;1696705;84;21546;-67
2022/01/02 06:20:22;;;;;;;3.47;1.60;;;;;;;-0.68;65.20;101037.27;1696311;84;21012;-67
2022/01/02 06:22:50;;;;;;;3.42;1.90;;;;;;;-0.70;65.06;101043.98;1697097;84;21059;-67
2022/01/02 06:25:18;;;;;;;2.77;1.60;;;;;;;-0.68;64.89;101051.70;1696489;84;21114;-68
2022/01/02 06:27:46;;;;;;;3.67;1.80;;;;;;;-0.68;64.85;101051.20;1696535;84;21128;-68
2022/01/02 06:30:12;;;;;;;3.02;1.85;;;;;;;-0.67;64.73;101052.01;1696431;84;21546;-68
2022/01/02 06:32:41;;;;;;;3.05;1.80;;;;;;;-0.67;64.70;101048.08;1696608;84;21106;-67
2022/01/02 06:35:08;;;;;;;3.27;1.57;;;;;;;-0.66;64.72;101046.58;1696485;83;21027;-68
2022/01/02 06:37:35;;;;;;;2.80;1.60;;;;;;;-0.66;64.66;101053.13;1696734;84;21024;-68
2022/01/02 06:40:05;;;;;;;3.47;1.70;;;;;;;-0.68;64.60;101045.95;1696423;84;21079;-68
2022/01/02 06:42:34;;;;;;;3.12;1.60;;;;;;;-0.65;64.52;101053.98;1696817;84;21056;-68
2022/01/02 06:45:01;;;;;;;3.30;1.40;;;;;;;-0.62;64.57;101047.08;1696354;84;21114;-68
2022/01/02 06:47:28;;;;;;;2.35;1.30;;;;;;;-0.61;64.72;101052.64;1696656;83;21064;-67
2022/01/02 06:49:55;;;;;;;2.12;1.22;;;;;;;-0.61;64.71;101060.52;1696370;84;21503;-69
2022/01/02 06:52:22;;;;;;;2.15;1.20;;;;;;;-0.61;64.26;101063.14;1696656;84;21012;-68
2022/01/02 06:54:54;;;;;;;2.17;1.10;;;;;;;-0.59;63.89;101067.70;1696598;84;21554;-68
2022/01/02 06:57:18;;;;;;;2.22;1.20;;;;;;;-0.61;63.11;101062.64;1695760;84;20948;-67
2022/01/02 06:59:44;;;;;;;2.70;0.95;;;;;;;-0.61;61.67;101068.38;1696447;84;21051;-68
2022/01/02 07:02:11;;;;;;;2.20;0.90;;;;;;;-0.61;60.23;101071.82;1696642;84;21039;-68
2022/01/02 07:04:38;;;;;;;1.57;0.90;;;;;;;-0.62;58.26;101078.56;1696602;84;21007;-68
2022/01/02 07:07:05;;;;;;;3.12;1.00;;;;;;;-0.61;57.18;101090.69;1696706;84;21826;-68
2022/01/02 07:09:33;;;;;;;1.32;0.78;;;;;;;-0.60;56.39;101094.94;1696301;84;20954;-68
2022/01/02 07:11:59;;;;;;;2.55;1.27;;;;;;;-0.61;55.89;101110.36;1696776;84;20996;-67
2022/01/02 07:14:27;;;;;;;2.17;1.10;;;;;;;-0.60;55.60;101088.37;1696519;84;21070;-68
2022/01/02 07:16:55;;;;;;;1.98;0.93;;;;;;;-0.59;55.03;101080.81;1696602;84;21035;-68
2022/01/02 07:19:21;;;;;;;1.87;0.90;;;;;;;-0.58;55.04;101078.53;1696660;84;21141;-68
2022/01/02 07:21:50;;;;;;;1.45;0.85;;;;;;;-0.59;54.66;101067.23;1696391;84;21024;-69
2022/01/02 07:24:17;;;;;;;1.50;1.00;;;;;;;-0.53;54.62;101078.83;1696549;84;20988;-67
2022/01/02 07:26:43;;;;;;;1.85;0.98;;;;;;;-0.50;54.18;101081.92;1695974;84;21063;-68
2022/01/02 07:29:10;;;;;;;1.12;0.80;;;;;;;-0.47;54.09;101080.27;1692942;84;20965;-68
2022/01/02 07:31:38;;;;;;;2.10;0.90;;;;;;;-0.43;54.10;101090.42;1696425;84;21169;-68
2022/01/02 07:34:06;;;;;;;2.25;0.90;;;;;;;-0.41;53.50;101081.40;1696180;84;21012;-68
2022/01/02 07:36:32;;;;;;;1.57;0.90;;;;;;;-0.41;53.17;101099.77;1696563;84;21024;-68
2022/01/02 07:38:59;;;;;;;1.60;0.90;;;;;;;-0.38;52.82;101098.12;1696371;84;21508;-69
2022/01/02 07:41:25;;;;;;;1.90;0.93;;;;;;;-0.37;52.70;101101.05;1696830;84;21027;-68
2022/01/02 07:43:54;;;;;;;1.55;1.00;;;;;;;-0.36;52.40;101102.71;1695534;84;21174;-68
2022/01/02 07:46:21;;;;;;;2.72;1.00;;;;;;;-0.34;51.83;101121.71;1696433;83;21043;-68
2022/01/02 07:48:48;;;;;;;2.45;0.90;;;;;;;-0.31;51.49;101103.00;1696604;83;21550;-68
2022/01/02 07:51:15;;;;;;;1.87;0.88;;;;;;;-0.29;51.34;101106.28;1696523;83;21044;-68
2022/01/02 07:53:41;;;;;;;2.20;1.02;;;;;;;-0.25;51.45;101115.44;1696654;84;21550;-68
2022/01/02 07:56:08;;;;;;;2.02;0.90;;;;;;;-0.21;51.17;101119.03;1696589;84;21546;-68
2022/01/02 07:58:34;;;;;;;2.47;1.20;;;;;;;-0.19;50.97;101102.63;1696414;84;22028;-68
2022/01/02 08:01:01;;;;;;;3.08;1.27;;;;;;;-0.16;50.68;101118.84;1696383;83;21050;-68
2022/01/02 08:03:28;;;;;;;2.80;1.15;;;;;;;-0.11;50.68;101107.81;1696527;83;21115;-68
2022/01/02 08:05:54;;;;;;;2.17;1.27;;;;;;;-0.07;50.00;101106.47;1696495;83;21546;-69
2022/01/02 08:08:21;;;;;;;2.35;1.20;;;;;;;-0.05;49.60;101107.13;1696509;84;21141;-69
2022/01/02 08:10:48;;;;;;;2.83;1.25;;;;;;;0.01;50.26;101099.06;1696368;83;21071;-69
2022/01/02 08:13:15;;;;;;;2.55;1.27;;;;;;;0.04;50.39;101103.46;1696624;84;21020;-68
2022/01/02 08:15:43;;;;;;;2.02;0.93;;;;;;;0.09;50.16;101106.38;1696473;84;21020;-68
2022/01/02 08:18:13;;;;;;;2.50;1.30;;;;;;;0.12;49.28;101103.39;1696701;84;21008;-68
2022/01/02 08:20:42;;;;;;;2.58;1.30;;;;;;;0.15;49.74;101116.19;1696623;84;20952;-69
2022/01/02 08:23:08;;;;;;;2.30;1.27;;;;;;;0.21;50.01;101119.92;1696697;84;20964;-69
2022/01/02 08:25:35;;;;;;;4.22;1.62;;;;;;;0.24;50.64;101102.50;1696371;84;21558;-68
2022/01/02 08:28:02;;;;;;;3.35;1.55;;;;;;;0.23;50.98;101109.58;1696576;83;21008;-69
2022/01/02 08:30:29;;;;;;;2.67;1.50;;;;;;;0.30;51.06;101107.06;1696062;84;20960;-68
2022/01/02 08:32:56;;;;;;;2.70;1.45;;;;;;;0.35;51.20;101109.15;1696056;84;22142;-69
2022/01/02 08:35:22;;;;;;;3.95;1.20;;;;;;;0.37;51.03;101105.86;1695984;83;21068;-68
2022/01/02 08:37:49;;;;;;;3.17;1.60;;;;;;;0.40;50.28;101100.25;1694422;82;21111;-68
2022/01/02 08:40:16;;;;;;;3.02;1.65;;;;;;;0.41;50.52;101108.45;1694583;83;21518;-69
2022/01/02 08:42:43;;;;;;;2.90;1.50;;;;;;;0.45;50.57;101107.09;1694190;84;21040;-69
2022/01/02 08:45:10;;;;;;;3.45;1.60;;;;;;;0.52;50.46;101111.95;1694294;84;21581;-71
2022/01/02 08:47:38;;;;;;;3.50;1.55;;;;;;;0.50;50.35;101104.77;1461113;82;10001198;-71
2022/01/02 08:50:05;;;;;;;2.45;1.27;;;;;;;0.49;49.77;101108.36;1697395;84;27829;-70
2022/01/02 08:52:33;;;;;;;2.92;1.65;;;;;;;0.55;49.71;101097.65;1702682;81;21114;-69
2022/01/02 08:55:00;;;;;;;2.70;1.30;;;;;;;0.60;49.12;101092.19;1697620;84;21154;-68
2022/01/02 08:57:26;;;;;;;3.05;1.30;;;;;;;0.61;47.48;101085.92;1681899;81;21072;-74
2022/01/02 08:59:53;;;;;;;3.27;1.10;;;;;;;0.64;46.79;101092.64;1692750;84;21071;-79
2022/01/02 09:02:23;;;;;;;2.58;1.15;;;;;;;0.65;46.43;101091.64;1696006;81;21722;-87
2022/01/02 09:04:50;;;;;;;1.95;1.05;;;;;;;0.66;45.30;101103.31;1698899;84;21072;-72
2022/01/02 09:07:18;;;;;;;2.12;1.10;;;;;;;0.68;44.88;101095.23;1694098;81;21052;-70
2022/01/02 09:09:45;;;;;;;2.58;1.22;;;;;;;0.67;44.75;101098.86;1694782;81;21017;-75
2022/01/02 09:12:12;;;;;;;2.17;1.00;;;;;;;0.69;44.84;101097.70;1691662;84;21225;-71
2022/01/02 09:14:39;;;;;;;2.20;1.00;;;;;;;0.67;44.37;101083.91;1689193;82;21124;-70
2022/01/02 09:17:06;;;;;;;4.10;1.50;;;;;;;0.68;43.50;101094.73;1697831;84;21112;-73
2022/01/02 09:19:33;;;;;;;3.22;1.20;;;;;;;0.68;43.66;101086.84;1689241;81;21581;-70
2022/01/02 09:22:00;;;;;;;2.70;1.30;;;;;;;0.70;43.00;101074.84;1683856;83;21071;-70
2022/01/02 09:24:26;;;;;;;2.98;1.20;;;;;;;0.60;43.09;101064.59;1684658;84;21438;-70
2022/01/02 09:26:54;;;;;;;3.70;1.20;;;;;;;0.63;43.42;101079.19;1694264;84;21510;-71
2022/01/02 09:29:20;;;;;;;3.08;1.42;;;;;;;0.68;42.90;101070.25;1667339;84;21049;-71
2022/01/02 09:31:49;;;;;;;2.65;1.17;;;;;;;0.72;42.78;101066.77;1666577;86;21064;-69
2022/01/02 09:34:15;;;;;;;3.47;1.40;;;;;;;0.74;42.30;101076.11;1666759;86;21036;-71
2022/01/02 09:36:43;;;;;;;2.30;1.17;;;;;;;0.77;42.28;101084.15;1666373;86;21068;-71
2022/01/02 09:39:10;;;;;;;5.65;1.45;;;;;;;0.80;42.05;101075.91;1666700;84;22168;-71
2022/01/02 09:41:38;;;;;;;4.58;1.30;;;;;;;0.87;42.38;101078.94;1683928;84;21150;-72
2022/01/02 09:44:05;;;;;;;2.22;0.98;;;;;;;0.94;42.81;101079.03;1663964;84;21430;-71
2022/01/02 09:56:17;;;;;;;3.30;1.32;;;;;;;1.10;40.95;101078.05;1695225;82;21087;-72
2022/01/02 09:58:44;;;;;;;4.08;2.12;;;;;;;1.18;40.20;101077.94;1691660;82;21058;-72
2022/01/02 10:01:19;;;;;;;4.20;1.80;;;;;;;1.23;40.94;101091.37;1691042;84;21142;-72
2022/01/02 10:03:51;;;;;;;3.22;1.62;;;;;;;1.27;41.32;101083.94;1675264;84;21032;-73
2022/01/02 10:06:19;;;;;;;4.25;1.60;;;;;;;1.33;41.24;101075.31;1665225;86;21011;-72
2022/01/02 10:08:50;;;;;;;3.62;1.50;;;;;;;1.35;41.01;101076.77;1679360;84;21074;-71
2022/01/02 10:11:22;;;;;;;3.37;1.27;;;;;;;1.37;41.29;101072.62;1663776;86;21513;-78
2022/01/02 10:13:52;;;;;;;3.50;1.30;;;;;;;1.37;40.77;101083.96;1582032;83;10000363;-73
2022/01/02 10:16:32;;;;;;;5.55;1.85;;;;;;;1.38;40.80;101083.45;1695620;83;21058;-75
2022/01/02 10:19:01;;;;;;;3.80;1.52;;;;;;;1.40;41.00;101084.09;1697044;84;21059;-73
2022/01/02 10:21:35;;;;;;;3.12;1.22;;;;;;;1.43;41.64;101070.58;1695079;84;21180;-73
2022/01/02 10:24:21;;;;;;;3.22;1.62;;;;;;;1.47;41.92;101067.88;1697110;84;21531;-72
2022/01/02 10:27:10;;;;;;;3.77;1.62;;;;;;;1.49;42.02;101066.40;1692531;84;21126;-73
2022/01/02 10:30:07;;;;;;;3.98;1.42;;;;;;;1.49;42.38;101068.53;1695218;84;21070;-73
2022/01/02 10:32:39;;;;;;;4.12;1.98;;;;;;;1.52;42.28;101068.16;1704266;82;21026;-73
2022/01/02 10:35:24;;;;;;;3.30;1.57;;;;;;;1.53;42.26;101068.47;1693626;84;21052;-73
2022/01/02 10:37:54;;;;;;;4.20;1.50;;;;;;;1.55;42.12;101069.11;1691689;84;21568;-72
2022/01/02 10:40:39;;;;;;;4.78;1.70;;;;;;;1.54;41.72;101067.96;1681746;84;21097;-73
2022/01/02 10:43:10;;;;;;;3.50;1.75;;;;;;;1.55;41.69;101069.61;1680484;84;22330;-71
2022/01/02 10:45:50;;;;;;;5.25;2.20;;;;;;;1.55;41.51;101073.06;1687614;84;21093;-72
2022/01/02 10:48:16;;;;;;;4.12;1.90;;;;;;;1.57;41.78;101067.09;1694356;84;21080;-72
2022/01/02 10:51:10;;;;;;;3.67;1.87;;;;;;;1.64;41.73;101058.76;1697906;84;21198;-72
2022/01/02 10:53:38;;;;;;;6.30;2.10;;;;;;;1.67;41.86;101050.99;1699584;84;21043;-71
2022/01/02 10:56:05;;;;;;;5.15;2.50;;;;;;;1.71;42.02;101048.80;1682589;84;21276;-71
2022/01/02 10:58:35;;;;;;;4.35;2.10;;;;;;;1.76;42.43;101043.30;1690856;84;21108;-71
2022/01/02 11:01:06;;;;;;;4.50;2.00;;;;;;;1.79;41.91;101051.34;1689020;84;21029;-71
2022/01/02 11:03:33;;;;;;;7.62;2.50;;;;;;;1.78;41.86;101047.08;1680471;84;21161;-71
2022/01/02 11:06:09;;;;;;;4.92;2.17;;;;;;;1.74;41.83;101053.19;1690838;84;21560;-71
2022/01/02 11:08:44;;;;;;;3.70;1.95;;;;;;;1.71;42.04;101044.38;1691830;82;21048;-71
2022/01/02 11:11:11;;;;;;;4.42;1.95;;;;;;;1.73;41.67;101046.81;1680243;84;21176;-71
2022/01/02 11:13:38;;;;;;;4.42;2.20;;;;;;;1.76;41.49;101052.52;1698801;83;21599;-71
2022/01/02 11:16:04;;;;;;;4.30;2.10;;;;;;;1.81;41.09;101047.99;1699088;84;21145;-71
2022/01/02 11:18:33;;;;;;;6.28;2.40;;;;;;;1.84;41.21;101051.58;1663831;84;21064;-71
2022/01/02 11:21:02;;;;;;;5.42;2.25;;;;;;;1.87;40.75;101041.47;1688526;84;21081;-71
2022/01/02 11:23:57;;;;;;;4.87;2.50;;;;;;;1.92;40.98;101031.71;1657275;85;21496;-72
2022/01/02 11:26:56;;;;;;;;;;;;;;;1.98;41.20;101043.33;1682725;84;21121;-71
2022/01/02 11:29:29;;;;;;;4.20;1.95;;;;;;;2.02;40.97;101040.63;1681187;84;22171;-71
2022/01/02 11:31:56;;;;;;;5.83;2.42;;;;;;;1.99;40.64;101041.80;1652502;85;21026;-71
2022/01/02 11:34:30;;;;;;;5.12;2.40;;;;;;;1.95;40.88;101051.09;1680628;84;21120;-70
2022/01/02 11:37:14;;;;;;;4.58;2.33;;;;;;;1.90;40.93;101052.14;1680880;84;21077;-72
2022/01/02 11:40:02;;;;;;;6.00;2.50;;;;;;;1.92;41.34;101048.02;1666879;84;21075;-71
2022/01/02 11:42:42;;;;;;;5.92;2.35;;;;;;;1.93;40.90;101047.82;1718502;82;21156;-71
2022/01/02 11:45:25;;;;;;;4.72;2.00;;;;;;;1.92;41.25;101040.93;1725769;82;21026;-71
2022/01/02 11:47:53;;;;;;;5.12;2.77;;;;;;;1.85;40.50;101043.50;1715513;82;21141;-70
2022/01/02 11:50:39;;;;;;;4.15;2.45;;;;;;;1.78;41.00;101034.72;1716767;82;21061;-72
2022/01/02 11:53:17;;;;;;;6.20;2.60;;;;;;;1.79;40.63;101029.76;1714631;82;21088;-70
2022/01/02 11:55:46;;;;;;;5.60;2.37;;;;;;;1.81;40.17;101026.92;1719093;82;21117;-70